sensor_id;sensor_type;location;lat;lon;timestamp;P1;durP1;ratioP1;P2;durP2;ratioP2
32297;SDS011;18782;48.984;8.548;2023-05-16T00:00:35;11.07;;;9.85;;
32297;SDS011;18782;48.984;8.548;2023-05-16T00:03:03;11.55;;;9.75;;
32297;SDS011;18782;48.984;8.548;2023-05-16T00:05:32;11.13;;;9.90;;
32297;SDS011;18782;48.984;8.548;2023-05-16T00:08:01;12.60;;;10.23;;
32297;SDS011;18782;48.984;8.548;2023-05-16T00:10:28;12.20;;;10.20;;
32297;SDS011;18782;48.984;8.548;2023-05-16T00:12:56;16.88;;;12.70;;
32297;SDS011;18782;48.984;8.548;2023-05-16T00:15:24;18.55;;;14.07;;
32297;SDS011;18782;48.984;8.548;2023-05-16T00:17:51;14.60;;;11.95;;
32297;SDS011;18782;48.984;8.548;2023-05-16T00:20:23;15.70;;;12.45;;
32297;SDS011;18782;48.984;8.548;2023-05-16T00:22:54;16.63;;;13.45;;
32297;SDS011;18782;48.984;8.548;2023-05-16T00:25:26;15.00;;;12.50;;
32297;SDS011;18782;48.984;8.548;2023-05-16T00:27:53;15.85;;;12.57;;
32297;SDS011;18782;48.984;8.548;2023-05-16T00:30:21;12.40;;;11.10;;
32297;SDS011;18782;48.984;8.548;2023-05-16T00:32:50;12.18;;;10.80;;
32297;SDS011;18782;48.984;8.548;2023-05-16T00:35:18;13.23;;;11.43;;
32297;SDS011;18782;48.984;8.548;2023-05-16T00:37:48;11.38;;;10.18;;
32297;SDS011;18782;48.984;8.548;2023-05-16T00:40:17;15.30;;;11.07;;
32297;SDS011;18782;48.984;8.548;2023-05-16T00:42:45;12.98;;;10.50;;
32297;SDS011;18782;48.984;8.548;2023-05-16T00:45:13;13.43;;;11.70;;
32297;SDS011;18782;48.984;8.548;2023-05-16T00:47:41;12.98;;;11.35;;
32297;SDS011;18782;48.984;8.548;2023-05-16T00:50:09;14.27;;;11.15;;
32297;SDS011;18782;48.984;8.548;2023-05-16T00:52:37;11.55;;;10.30;;
32297;SDS011;18782;48.984;8.548;2023-05-16T00:55:05;11.30;;;9.50;;
32297;SDS011;18782;48.984;8.548;2023-05-16T00:57:37;11.52;;;9.63;;
32297;SDS011;18782;48.984;8.548;2023-05-16T01:00:05;11.25;;;10.05;;
32297;SDS011;18782;48.984;8.548;2023-05-16T01:02:36;11.35;;;10.07;;
32297;SDS011;18782;48.984;8.548;2023-05-16T01:05:04;11.75;;;10.00;;
32297;SDS011;18782;48.984;8.548;2023-05-16T01:07:33;11.63;;;10.32;;
32297;SDS011;18782;48.984;8.548;2023-05-16T01:10:02;13.35;;;10.85;;
32297;SDS011;18782;48.984;8.548;2023-05-16T01:12:37;13.73;;;10.82;;
32297;SDS011;18782;48.984;8.548;2023-05-16T01:15:12;14.38;;;11.10;;
32297;SDS011;18782;48.984;8.548;2023-05-16T01:17:46;14.32;;;11.48;;
32297;SDS011;18782;48.984;8.548;2023-05-16T01:20:24;11.35;;;10.02;;
32297;SDS011;18782;48.984;8.548;2023-05-16T01:23:03;16.33;;;10.20;;
32297;SDS011;18782;48.984;8.548;2023-05-16T01:25:38;12.73;;;10.85;;
32297;SDS011;18782;48.984;8.548;2023-05-16T01:28:23;12.88;;;10.25;;
32297;SDS011;18782;48.984;8.548;2023-05-16T01:30:51;11.02;;;9.93;;
32297;SDS011;18782;48.984;8.548;2023-05-16T01:33:19;12.80;;;11.38;;
32297;SDS011;18782;48.984;8.548;2023-05-16T01:35:50;16.33;;;13.00;;
32297;SDS011;18782;48.984;8.548;2023-05-16T01:38:25;18.02;;;14.75;;
32297;SDS011;18782;48.984;8.548;2023-05-16T01:41:00;15.90;;;11.80;;
32297;SDS011;18782;48.984;8.548;2023-05-16T01:43:33;21.35;;;15.70;;
32297;SDS011;18782;48.984;8.548;2023-05-16T01:46:08;22.95;;;18.23;;
32297;SDS011;18782;48.984;8.548;2023-05-16T01:48:42;23.50;;;16.95;;
32297;SDS011;18782;48.984;8.548;2023-05-16T01:51:15;22.77;;;18.02;;
32297;SDS011;18782;48.984;8.548;2023-05-16T01:53:44;24.38;;;19.55;;
32297;SDS011;18782;48.984;8.548;2023-05-16T01:56:14;24.77;;;19.73;;
32297;SDS011;18782;48.984;8.548;2023-05-16T01:58:44;28.38;;;20.83;;
32297;SDS011;18782;48.984;8.548;2023-05-16T02:01:14;25.75;;;20.95;;
32297;SDS011;18782;48.984;8.548;2023-05-16T02:03:42;28.80;;;20.67;;
32297;SDS011;18782;48.984;8.548;2023-05-16T02:06:09;30.58;;;22.50;;
32297;SDS011;18782;48.984;8.548;2023-05-16T02:12:43;28.70;;;21.98;;
32297;SDS011;18782;48.984;8.548;2023-05-16T02:15:13;30.98;;;22.40;;
32297;SDS011;18782;48.984;8.548;2023-05-16T02:17:40;29.30;;;20.40;;
32297;SDS011;18782;48.984;8.548;2023-05-16T02:20:08;26.90;;;20.95;;
32297;SDS011;18782;48.984;8.548;2023-05-16T02:22:37;28.27;;;21.10;;
32297;SDS011;18782;48.984;8.548;2023-05-16T02:25:05;27.23;;;21.08;;
32297;SDS011;18782;48.984;8.548;2023-05-16T02:27:33;30.40;;;20.80;;
32297;SDS011;18782;48.984;8.548;2023-05-16T02:30:01;29.15;;;22.27;;
32297;SDS011;18782;48.984;8.548;2023-05-16T02:32:31;30.50;;;22.70;;
32297;SDS011;18782;48.984;8.548;2023-05-16T02:34:59;29.48;;;22.73;;
32297;SDS011;18782;48.984;8.548;2023-05-16T02:37:27;30.55;;;22.55;;
32297;SDS011;18782;48.984;8.548;2023-05-16T02:39:55;29.48;;;22.05;;
32297;SDS011;18782;48.984;8.548;2023-05-16T02:42:24;33.90;;;22.10;;
32297;SDS011;18782;48.984;8.548;2023-05-16T02:44:53;26.83;;;20.13;;
32297;SDS011;18782;48.984;8.548;2023-05-16T02:47:20;31.63;;;22.95;;
32297;SDS011;18782;48.984;8.548;2023-05-16T02:49:49;30.33;;;22.35;;
32297;SDS011;18782;48.984;8.548;2023-05-16T02:52:18;30.13;;;21.65;;
32297;SDS011;18782;48.984;8.548;2023-05-16T02:54:46;27.23;;;21.33;;
32297;SDS011;18782;48.984;8.548;2023-05-16T02:57:29;31.83;;;21.38;;
32297;SDS011;18782;48.984;8.548;2023-05-16T02:59:57;29.65;;;21.70;;
32297;SDS011;18782;48.984;8.548;2023-05-16T03:02:25;27.92;;;21.92;;
32297;SDS011;18782;48.984;8.548;2023-05-16T03:04:54;30.77;;;21.05;;
32297;SDS011;18782;48.984;8.548;2023-05-16T03:07:22;30.48;;;20.77;;
32297;SDS011;18782;48.984;8.548;2023-05-16T03:09:49;31.08;;;22.40;;
32297;SDS011;18782;48.984;8.548;2023-05-16T03:12:17;29.65;;;21.25;;
32297;SDS011;18782;48.984;8.548;2023-05-16T03:14:45;30.33;;;20.98;;
32297;SDS011;18782;48.984;8.548;2023-05-16T03:17:12;29.58;;;22.17;;
32297;SDS011;18782;48.984;8.548;2023-05-16T03:19:40;36.13;;;25.60;;
32297;SDS011;18782;48.984;8.548;2023-05-16T03:22:09;34.30;;;23.23;;
32297;SDS011;18782;48.984;8.548;2023-05-16T03:24:41;27.83;;;20.90;;
32297;SDS011;18782;48.984;8.548;2023-05-16T03:27:10;28.70;;;21.63;;
32297;SDS011;18782;48.984;8.548;2023-05-16T03:29:37;28.83;;;21.23;;
32297;SDS011;18782;48.984;8.548;2023-05-16T03:32:05;29.27;;;21.35;;
32297;SDS011;18782;48.984;8.548;2023-05-16T03:34:33;33.08;;;22.08;;
32297;SDS011;18782;48.984;8.548;2023-05-16T03:37:00;25.92;;;19.10;;
32297;SDS011;18782;48.984;8.548;2023-05-16T03:39:29;28.90;;;21.00;;
32297;SDS011;18782;48.984;8.548;2023-05-16T03:41:57;24.52;;;18.23;;
32297;SDS011;18782;48.984;8.548;2023-05-16T03:44:25;29.90;;;20.00;;
32297;SDS011;18782;48.984;8.548;2023-05-16T03:46:52;32.92;;;22.35;;
32297;SDS011;18782;48.984;8.548;2023-05-16T03:49:23;31.10;;;20.42;;
32297;SDS011;18782;48.984;8.548;2023-05-16T03:51:53;28.33;;;20.48;;
32297;SDS011;18782;48.984;8.548;2023-05-16T03:54:20;25.10;;;18.92;;
32297;SDS011;18782;48.984;8.548;2023-05-16T03:56:49;28.75;;;18.48;;
32297;SDS011;18782;48.984;8.548;2023-05-16T03:59:17;26.40;;;18.98;;
32297;SDS011;18782;48.984;8.548;2023-05-16T04:01:45;28.05;;;19.17;;
32297;SDS011;18782;48.984;8.548;2023-05-16T04:04:12;28.27;;;20.33;;
32297;SDS011;18782;48.984;8.548;2023-05-16T04:06:40;28.38;;;20.58;;
32297;SDS011;18782;48.984;8.548;2023-05-16T04:09:08;23.23;;;17.23;;
32297;SDS011;18782;48.984;8.548;2023-05-16T04:11:35;24.85;;;18.83;;
32297;SDS011;18782;48.984;8.548;2023-05-16T04:14:05;25.80;;;19.33;;
32297;SDS011;18782;48.984;8.548;2023-05-16T04:16:33;24.00;;;18.35;;
32297;SDS011;18782;48.984;8.548;2023-05-16T04:19:00;27.58;;;18.88;;
32297;SDS011;18782;48.984;8.548;2023-05-16T04:21:29;25.20;;;19.00;;
32297;SDS011;18782;48.984;8.548;2023-05-16T04:23:56;26.60;;;18.10;;
32297;SDS011;18782;48.984;8.548;2023-05-16T04:26:24;26.05;;;18.60;;
32297;SDS011;18782;48.984;8.548;2023-05-16T04:28:52;27.80;;;18.33;;
32297;SDS011;18782;48.984;8.548;2023-05-16T04:31:23;27.70;;;18.17;;
32297;SDS011;18782;48.984;8.548;2023-05-16T04:33:51;24.33;;;18.27;;
32297;SDS011;18782;48.984;8.548;2023-05-16T04:36:19;25.13;;;17.38;;
32297;SDS011;18782;48.984;8.548;2023-05-16T04:38:47;26.50;;;18.17;;
32297;SDS011;18782;48.984;8.548;2023-05-16T04:41:14;22.58;;;16.98;;
32297;SDS011;18782;48.984;8.548;2023-05-16T04:43:42;28.52;;;18.45;;
32297;SDS011;18782;48.984;8.548;2023-05-16T04:46:10;26.70;;;17.20;;
32297;SDS011;18782;48.984;8.548;2023-05-16T04:48:40;25.77;;;18.15;;
32297;SDS011;18782;48.984;8.548;2023-05-16T04:51:07;24.92;;;17.35;;
32297;SDS011;18782;48.984;8.548;2023-05-16T04:53:35;23.77;;;16.98;;
32297;SDS011;18782;48.984;8.548;2023-05-16T04:56:03;22.73;;;16.98;;
32297;SDS011;18782;48.984;8.548;2023-05-16T04:58:31;25.33;;;16.40;;
32297;SDS011;18782;48.984;8.548;2023-05-16T05:00:58;23.33;;;16.13;;
32297;SDS011;18782;48.984;8.548;2023-05-16T05:03:27;22.95;;;16.00;;
32297;SDS011;18782;48.984;8.548;2023-05-16T05:05:56;22.38;;;16.77;;
32297;SDS011;18782;48.984;8.548;2023-05-16T05:08:24;26.52;;;16.75;;
32297;SDS011;18782;48.984;8.548;2023-05-16T05:10:52;24.55;;;16.98;;
32297;SDS011;18782;48.984;8.548;2023-05-16T05:13:19;22.45;;;15.65;;
32297;SDS011;18782;48.984;8.548;2023-05-16T05:15:47;21.33;;;15.70;;
32297;SDS011;18782;48.984;8.548;2023-05-16T05:18:15;24.85;;;16.35;;
32297;SDS011;18782;48.984;8.548;2023-05-16T05:20:43;26.50;;;15.90;;
32297;SDS011;18782;48.984;8.548;2023-05-16T05:23:12;20.92;;;14.00;;
32297;SDS011;18782;48.984;8.548;2023-05-16T05:25:40;21.98;;;14.77;;
32297;SDS011;18782;48.984;8.548;2023-05-16T05:28:07;23.73;;;15.55;;
32297;SDS011;18782;48.984;8.548;2023-05-16T05:30:35;21.77;;;15.30;;
32297;SDS011;18782;48.984;8.548;2023-05-16T05:33:02;23.95;;;15.60;;
32297;SDS011;18782;48.984;8.548;2023-05-16T05:35:30;22.17;;;14.88;;
32297;SDS011;18782;48.984;8.548;2023-05-16T05:37:59;21.60;;;15.05;;
32297;SDS011;18782;48.984;8.548;2023-05-16T05:40:28;25.05;;;14.68;;
32297;SDS011;18782;48.984;8.548;2023-05-16T05:42:56;21.02;;;14.05;;
32297;SDS011;18782;48.984;8.548;2023-05-16T05:45:23;22.73;;;14.82;;
32297;SDS011;18782;48.984;8.548;2023-05-16T05:47:51;20.20;;;14.40;;
32297;SDS011;18782;48.984;8.548;2023-05-16T05:50:19;20.42;;;13.90;;
32297;SDS011;18782;48.984;8.548;2023-05-16T05:52:46;21.48;;;15.07;;
32297;SDS011;18782;48.984;8.548;2023-05-16T05:55:14;25.83;;;14.38;;
32297;SDS011;18782;48.984;8.548;2023-05-16T05:57:43;22.85;;;14.60;;
32297;SDS011;18782;48.984;8.548;2023-05-16T06:00:11;21.33;;;14.05;;
32297;SDS011;18782;48.984;8.548;2023-05-16T06:02:39;21.20;;;14.10;;
32297;SDS011;18782;48.984;8.548;2023-05-16T06:05:07;20.73;;;13.27;;
32297;SDS011;18782;48.984;8.548;2023-05-16T06:07:35;20.25;;;14.15;;
32297;SDS011;18782;48.984;8.548;2023-05-16T06:10:03;19.38;;;13.13;;
32297;SDS011;18782;48.984;8.548;2023-05-16T06:12:33;20.02;;;12.98;;
32297;SDS011;18782;48.984;8.548;2023-05-16T06:15:03;20.48;;;13.75;;
32297;SDS011;18782;48.984;8.548;2023-05-16T06:17:30;18.88;;;11.95;;
32297;SDS011;18782;48.984;8.548;2023-05-16T06:19:58;18.98;;;12.60;;
32297;SDS011;18782;48.984;8.548;2023-05-16T06:22:26;19.52;;;11.85;;
32297;SDS011;18782;48.984;8.548;2023-05-16T06:24:53;20.75;;;12.25;;
32297;SDS011;18782;48.984;8.548;2023-05-16T06:27:21;18.75;;;12.35;;
32297;SDS011;18782;48.984;8.548;2023-05-16T06:29:48;17.02;;;11.82;;
32297;SDS011;18782;48.984;8.548;2023-05-16T06:32:17;15.20;;;10.75;;
32297;SDS011;18782;48.984;8.548;2023-05-16T06:34:45;16.60;;;11.43;;
32297;SDS011;18782;48.984;8.548;2023-05-16T06:37:12;18.23;;;10.85;;
32297;SDS011;18782;48.984;8.548;2023-05-16T06:39:40;17.77;;;10.30;;
32297;SDS011;18782;48.984;8.548;2023-05-16T06:42:07;15.52;;;10.65;;
32297;SDS011;18782;48.984;8.548;2023-05-16T06:44:36;15.50;;;9.98;;
32297;SDS011;18782;48.984;8.548;2023-05-16T06:47:04;14.25;;;9.07;;
32297;SDS011;18782;48.984;8.548;2023-05-16T06:49:33;15.88;;;9.40;;
32297;SDS011;18782;48.984;8.548;2023-05-16T06:52:01;16.20;;;9.05;;
32297;SDS011;18782;48.984;8.548;2023-05-16T06:54:28;11.70;;;8.13;;
32297;SDS011;18782;48.984;8.548;2023-05-16T06:56:57;11.70;;;8.18;;
32297;SDS011;18782;48.984;8.548;2023-05-16T06:59:25;9.70;;;7.03;;
32297;SDS011;18782;48.984;8.548;2023-05-16T07:01:53;12.85;;;6.57;;
32297;SDS011;18782;48.984;8.548;2023-05-16T07:04:21;12.52;;;7.35;;
32297;SDS011;18782;48.984;8.548;2023-05-16T07:06:50;11.10;;;6.95;;
32297;SDS011;18782;48.984;8.548;2023-05-16T07:09:18;9.30;;;6.63;;
32297;SDS011;18782;48.984;8.548;2023-05-16T07:11:46;10.23;;;5.65;;
32297;SDS011;18782;48.984;8.548;2023-05-16T07:14:14;8.40;;;5.45;;
32297;SDS011;18782;48.984;8.548;2023-05-16T07:16:42;9.73;;;5.43;;
32297;SDS011;18782;48.984;8.548;2023-05-16T07:19:09;6.28;;;4.95;;
32297;SDS011;18782;48.984;8.548;2023-05-16T07:21:37;7.40;;;4.95;;
32297;SDS011;18782;48.984;8.548;2023-05-16T07:24:06;7.75;;;4.88;;
32297;SDS011;18782;48.984;8.548;2023-05-16T07:26:34;6.30;;;4.25;;
32297;SDS011;18782;48.984;8.548;2023-05-16T07:29:01;8.13;;;3.97;;
32297;SDS011;18782;48.984;8.548;2023-05-16T07:31:29;5.78;;;3.90;;
32297;SDS011;18782;48.984;8.548;2023-05-16T07:33:57;6.10;;;4.18;;
32297;SDS011;18782;48.984;8.548;2023-05-16T07:36:25;5.55;;;3.58;;
32297;SDS011;18782;48.984;8.548;2023-05-16T07:38:52;5.60;;;3.70;;
32297;SDS011;18782;48.984;8.548;2023-05-16T07:41:21;5.50;;;3.08;;
32297;SDS011;18782;48.984;8.548;2023-05-16T07:43:50;4.82;;;3.00;;
32297;SDS011;18782;48.984;8.548;2023-05-16T07:46:18;3.55;;;2.58;;
32297;SDS011;18782;48.984;8.548;2023-05-16T07:48:46;4.10;;;2.58;;
32297;SDS011;18782;48.984;8.548;2023-05-16T07:51:13;5.38;;;2.70;;
32297;SDS011;18782;48.984;8.548;2023-05-16T07:53:41;4.80;;;2.22;;
32297;SDS011;18782;48.984;8.548;2023-05-16T07:56:09;5.60;;;2.13;;
32297;SDS011;18782;48.984;8.548;2023-05-16T07:58:40;2.35;;;1.73;;
32297;SDS011;18782;48.984;8.548;2023-05-16T08:01:07;3.67;;;2.30;;
32297;SDS011;18782;48.984;8.548;2023-05-16T08:03:35;3.35;;;2.35;;
32297;SDS011;18782;48.984;8.548;2023-05-16T08:06:03;2.83;;;1.90;;
32297;SDS011;18782;48.984;8.548;2023-05-16T08:08:31;2.28;;;1.67;;
32297;SDS011;18782;48.984;8.548;2023-05-16T08:10:59;2.28;;;1.48;;
32297;SDS011;18782;48.984;8.548;2023-05-16T08:13:27;1.60;;;1.20;;
32297;SDS011;18782;48.984;8.548;2023-05-16T08:15:56;2.63;;;1.30;;
32297;SDS011;18782;48.984;8.548;2023-05-16T08:18:23;3.35;;;1.50;;
32297;SDS011;18782;48.984;8.548;2023-05-16T08:20:51;7.22;;;1.20;;
32297;SDS011;18782;48.984;8.548;2023-05-16T08:23:18;1.52;;;1.27;;
32297;SDS011;18782;48.984;8.548;2023-05-16T08:25:46;3.13;;;1.40;;
32297;SDS011;18782;48.984;8.548;2023-05-16T08:28:14;2.05;;;1.02;;
32297;SDS011;18782;48.984;8.548;2023-05-16T08:30:41;2.78;;;1.40;;
32297;SDS011;18782;48.984;8.548;2023-05-16T08:33:14;1.60;;;1.33;;
32297;SDS011;18782;48.984;8.548;2023-05-16T08:35:42;1.70;;;1.27;;
32297;SDS011;18782;48.984;8.548;2023-05-16T08:38:11;2.17;;;1.50;;
32297;SDS011;18782;48.984;8.548;2023-05-16T08:40:39;2.83;;;1.52;;
32297;SDS011;18782;48.984;8.548;2023-05-16T08:43:07;2.05;;;1.55;;
32297;SDS011;18782;48.984;8.548;2023-05-16T08:45:35;3.05;;;1.65;;
32297;SDS011;18782;48.984;8.548;2023-05-16T08:48:03;1.65;;;1.02;;
32297;SDS011;18782;48.984;8.548;2023-05-16T08:50:37;3.42;;;1.52;;
32297;SDS011;18782;48.984;8.548;2023-05-16T08:53:05;2.60;;;1.75;;
32297;SDS011;18782;48.984;8.548;2023-05-16T08:55:34;3.50;;;1.80;;
32297;SDS011;18782;48.984;8.548;2023-05-16T08:58:02;2.25;;;1.40;;
32297;SDS011;18782;48.984;8.548;2023-05-16T09:00:30;3.53;;;2.05;;
32297;SDS011;18782;48.984;8.548;2023-05-16T09:02:58;20.98;;;10.00;;
32297;SDS011;18782;48.984;8.548;2023-05-16T09:05:28;2.70;;;1.67;;
32297;SDS011;18782;48.984;8.548;2023-05-16T09:07:57;2.33;;;0.80;;
32297;SDS011;18782;48.984;8.548;2023-05-16T09:10:25;2.10;;;1.30;;
32297;SDS011;18782;48.984;8.548;2023-05-16T09:12:53;3.63;;;1.00;;
32297;SDS011;18782;48.984;8.548;2023-05-16T09:15:20;3.28;;;0.98;;
32297;SDS011;18782;48.984;8.548;2023-05-16T09:17:48;3.85;;;1.65;;
32297;SDS011;18782;48.984;8.548;2023-05-16T09:20:18;1.23;;;0.80;;
32297;SDS011;18782;48.984;8.548;2023-05-16T09:22:50;3.22;;;0.80;;
32297;SDS011;18782;48.984;8.548;2023-05-16T09:25:20;3.97;;;0.80;;
32297;SDS011;18782;48.984;8.548;2023-05-16T09:27:52;1.17;;;0.60;;
32297;SDS011;18782;48.984;8.548;2023-05-16T09:30:21;2.42;;;1.50;;
32297;SDS011;18782;48.984;8.548;2023-05-16T09:32:50;0.88;;;0.50;;
32297;SDS011;18782;48.984;8.548;2023-05-16T09:35:19;0.90;;;0.40;;
32297;SDS011;18782;48.984;8.548;2023-05-16T09:38:11;1.55;;;0.57;;
32297;SDS011;18782;48.984;8.548;2023-05-16T09:40:41;0.60;;;0.38;;
32297;SDS011;18782;48.984;8.548;2023-05-16T09:43:09;0.52;;;0.35;;
32297;SDS011;18782;48.984;8.548;2023-05-16T09:45:44;3.00;;;0.40;;
32297;SDS011;18782;48.984;8.548;2023-05-16T09:48:14;1.33;;;0.40;;
32297;SDS011;18782;48.984;8.548;2023-05-16T09:50:46;4.20;;;0.50;;
32297;SDS011;18782;48.984;8.548;2023-05-16T09:53:17;0.90;;;0.70;;
32297;SDS011;18782;48.984;8.548;2023-05-16T09:55:59;1.35;;;0.57;;
32297;SDS011;18782;48.984;8.548;2023-05-16T09:58:28;1.17;;;0.47;;
32297;SDS011;18782;48.984;8.548;2023-05-16T10:00:57;0.93;;;0.50;;
32297;SDS011;18782;48.984;8.548;2023-05-16T10:03:25;1.60;;;0.57;;
32297;SDS011;18782;48.984;8.548;2023-05-16T10:05:54;7.50;;;0.50;;
32297;SDS011;18782;48.984;8.548;2023-05-16T10:08:23;3.22;;;0.65;;
32297;SDS011;18782;48.984;8.548;2023-05-16T10:10:52;0.93;;;0.73;;
32297;SDS011;18782;48.984;8.548;2023-05-16T10:13:23;0.98;;;0.60;;
32297;SDS011;18782;48.984;8.548;2023-05-16T10:18:24;1.35;;;0.70;;
32297;SDS011;18782;48.984;8.548;2023-05-16T10:20:56;2.55;;;0.68;;
32297;SDS011;18782;48.984;8.548;2023-05-16T10:23:28;1.45;;;0.80;;
32297;SDS011;18782;48.984;8.548;2023-05-16T10:26:00;0.90;;;0.60;;
32297;SDS011;18782;48.984;8.548;2023-05-16T10:28:31;3.00;;;0.90;;
32297;SDS011;18782;48.984;8.548;2023-05-16T10:30:59;1.58;;;0.60;;
32297;SDS011;18782;48.984;8.548;2023-05-16T10:33:27;2.90;;;1.27;;
32297;SDS011;18782;48.984;8.548;2023-05-16T10:35:55;2.85;;;1.13;;
32297;SDS011;18782;48.984;8.548;2023-05-16T10:38:23;2.83;;;0.50;;
32297;SDS011;18782;48.984;8.548;2023-05-16T10:40:52;1.30;;;0.52;;
32297;SDS011;18782;48.984;8.548;2023-05-16T10:43:22;1.13;;;0.80;;
32297;SDS011;18782;48.984;8.548;2023-05-16T10:48:53;4.30;;;0.55;;
32297;SDS011;18782;48.984;8.548;2023-05-16T10:51:33;1.17;;;0.40;;
32297;SDS011;18782;48.984;8.548;2023-05-16T10:54:05;2.65;;;0.40;;
32297;SDS011;18782;48.984;8.548;2023-05-16T10:56:35;1.45;;;0.20;;
32297;SDS011;18782;48.984;8.548;2023-05-16T10:59:03;1.48;;;0.25;;
32297;SDS011;18782;48.984;8.548;2023-05-16T11:01:31;1.88;;;0.35;;
32297;SDS011;18782;48.984;8.548;2023-05-16T11:04:03;1.27;;;0.20;;
32297;SDS011;18782;48.984;8.548;2023-05-16T11:06:45;2.55;;;0.50;;
32297;SDS011;18782;48.984;8.548;2023-05-16T11:09:19;1.98;;;0.30;;
32297;SDS011;18782;48.984;8.548;2023-05-16T11:11:55;0.60;;;0.20;;
32297;SDS011;18782;48.984;8.548;2023-05-16T11:14:25;0.77;;;0.30;;
32297;SDS011;18782;48.984;8.548;2023-05-16T11:16:59;1.33;;;0.30;;
32297;SDS011;18782;48.984;8.548;2023-05-16T11:19:31;0.63;;;0.30;;
32297;SDS011;18782;48.984;8.548;2023-05-16T11:22:07;0.95;;;0.30;;
32297;SDS011;18782;48.984;8.548;2023-05-16T11:24:37;3.15;;;0.30;;
32297;SDS011;18782;48.984;8.548;2023-05-16T11:27:05;0.90;;;0.32;;
32297;SDS011;18782;48.984;8.548;2023-05-16T11:29:34;0.95;;;0.40;;
32297;SDS011;18782;48.984;8.548;2023-05-16T11:32:03;1.40;;;0.43;;
32297;SDS011;18782;48.984;8.548;2023-05-16T11:34:34;0.20;;;0.20;;
32297;SDS011;18782;48.984;8.548;2023-05-16T11:37:04;0.45;;;0.20;;
32297;SDS011;18782;48.984;8.548;2023-05-16T11:39:32;0.43;;;0.10;;
32297;SDS011;18782;48.984;8.548;2023-05-16T11:42:00;1.40;;;0.30;;
32297;SDS011;18782;48.984;8.548;2023-05-16T11:44:28;1.85;;;0.20;;
32297;SDS011;18782;48.984;8.548;2023-05-16T11:46:56;2.00;;;0.22;;
32297;SDS011;18782;48.984;8.548;2023-05-16T11:49:27;1.13;;;0.30;;
32297;SDS011;18782;48.984;8.548;2023-05-16T11:51:56;1.23;;;0.40;;
32297;SDS011;18782;48.984;8.548;2023-05-16T11:54:24;1.17;;;0.40;;
32297;SDS011;18782;48.984;8.548;2023-05-16T11:56:52;1.52;;;0.30;;
32297;SDS011;18782;48.984;8.548;2023-05-16T11:59:23;1.85;;;0.73;;
32297;SDS011;18782;48.984;8.548;2023-05-16T12:01:51;2.13;;;0.60;;
32297;SDS011;18782;48.984;8.548;2023-05-16T12:04:19;1.85;;;0.50;;
32297;SDS011;18782;48.984;8.548;2023-05-16T12:06:58;0.80;;;0.25;;
32297;SDS011;18782;48.984;8.548;2023-05-16T12:09:27;2.13;;;0.68;;
32297;SDS011;18782;48.984;8.548;2023-05-16T12:11:55;0.90;;;0.38;;
32297;SDS011;18782;48.984;8.548;2023-05-16T12:14:23;2.88;;;0.70;;
32297;SDS011;18782;48.984;8.548;2023-05-16T12:16:51;1.08;;;0.73;;
32297;SDS011;18782;48.984;8.548;2023-05-16T12:19:20;0.93;;;0.45;;
32297;SDS011;18782;48.984;8.548;2023-05-16T12:21:51;1.67;;;0.45;;
32297;SDS011;18782;48.984;8.548;2023-05-16T12:24:20;0.88;;;0.47;;
32297;SDS011;18782;48.984;8.548;2023-05-16T12:26:48;1.13;;;0.45;;
32297;SDS011;18782;48.984;8.548;2023-05-16T12:29:19;1.42;;;0.30;;
32297;SDS011;18782;48.984;8.548;2023-05-16T12:31:51;1.42;;;0.40;;
32297;SDS011;18782;48.984;8.548;2023-05-16T12:34:19;1.48;;;0.40;;
32297;SDS011;18782;48.984;8.548;2023-05-16T12:36:51;1.30;;;0.40;;
32297;SDS011;18782;48.984;8.548;2023-05-16T12:39:21;1.63;;;0.30;;
32297;SDS011;18782;48.984;8.548;2023-05-16T12:41:49;2.15;;;0.35;;
32297;SDS011;18782;48.984;8.548;2023-05-16T12:44:17;1.40;;;0.40;;
32297;SDS011;18782;48.984;8.548;2023-05-16T12:46:46;0.60;;;0.30;;
32297;SDS011;18782;48.984;8.548;2023-05-16T12:49:18;1.33;;;0.35;;
32297;SDS011;18782;48.984;8.548;2023-05-16T12:51:49;1.98;;;0.40;;
32297;SDS011;18782;48.984;8.548;2023-05-16T12:54:18;1.95;;;0.60;;
32297;SDS011;18782;48.984;8.548;2023-05-16T12:56:49;2.08;;;0.40;;
32297;SDS011;18782;48.984;8.548;2023-05-16T12:59:17;1.95;;;0.30;;
32297;SDS011;18782;48.984;8.548;2023-05-16T13:01:45;1.00;;;0.50;;
32297;SDS011;18782;48.984;8.548;2023-05-16T13:04:13;1.38;;;0.40;;
32297;SDS011;18782;48.984;8.548;2023-05-16T13:06:44;2.28;;;0.50;;
32297;SDS011;18782;48.984;8.548;2023-05-16T13:09:25;1.27;;;0.50;;
32297;SDS011;18782;48.984;8.548;2023-05-16T13:11:59;3.03;;;0.45;;
32297;SDS011;18782;48.984;8.548;2023-05-16T13:14:27;1.40;;;0.40;;
32297;SDS011;18782;48.984;8.548;2023-05-16T13:16:55;1.80;;;0.50;;
32297;SDS011;18782;48.984;8.548;2023-05-16T13:19:22;2.95;;;0.60;;
32297;SDS011;18782;48.984;8.548;2023-05-16T13:21:50;3.15;;;0.70;;
32297;SDS011;18782;48.984;8.548;2023-05-16T13:24:18;2.70;;;0.65;;
32297;SDS011;18782;48.984;8.548;2023-05-16T13:26:46;4.65;;;0.68;;
32297;SDS011;18782;48.984;8.548;2023-05-16T13:29:15;4.15;;;0.80;;
32297;SDS011;18782;48.984;8.548;2023-05-16T13:31:42;4.63;;;0.80;;
32297;SDS011;18782;48.984;8.548;2023-05-16T13:34:10;5.35;;;2.22;;
32297;SDS011;18782;48.984;8.548;2023-05-16T13:36:38;2.17;;;0.70;;
32297;SDS011;18782;48.984;8.548;2023-05-16T13:39:19;2.72;;;0.80;;
32297;SDS011;18782;48.984;8.548;2023-05-16T13:41:48;3.55;;;0.80;;
32297;SDS011;18782;48.984;8.548;2023-05-16T13:44:17;1.77;;;0.60;;
32297;SDS011;18782;48.984;8.548;2023-05-16T13:46:45;4.35;;;0.88;;
32297;SDS011;18782;48.984;8.548;2023-05-16T13:49:13;3.25;;;0.90;;
32297;SDS011;18782;48.984;8.548;2023-05-16T13:51:40;4.55;;;0.80;;
32297;SDS011;18782;48.984;8.548;2023-05-16T13:54:08;4.00;;;1.00;;
32297;SDS011;18782;48.984;8.548;2023-05-16T13:56:36;4.60;;;0.77;;
32297;SDS011;18782;48.984;8.548;2023-05-16T13:59:04;4.93;;;0.98;;
32297;SDS011;18782;48.984;8.548;2023-05-16T14:01:34;3.72;;;0.85;;
32297;SDS011;18782;48.984;8.548;2023-05-16T14:04:02;3.33;;;0.80;;
32297;SDS011;18782;48.984;8.548;2023-05-16T14:06:31;3.72;;;1.05;;
32297;SDS011;18782;48.984;8.548;2023-05-16T14:08:58;2.90;;;0.90;;
32297;SDS011;18782;48.984;8.548;2023-05-16T14:11:26;5.03;;;1.00;;
32297;SDS011;18782;48.984;8.548;2023-05-16T14:13:55;8.23;;;1.25;;
32297;SDS011;18782;48.984;8.548;2023-05-16T14:16:23;5.47;;;1.10;;
32297;SDS011;18782;48.984;8.548;2023-05-16T14:18:52;7.22;;;1.20;;
32297;SDS011;18782;48.984;8.548;2023-05-16T14:21:20;3.70;;;0.65;;
32297;SDS011;18782;48.984;8.548;2023-05-16T14:23:47;5.03;;;1.00;;
32297;SDS011;18782;48.984;8.548;2023-05-16T14:26:15;3.50;;;0.73;;
32297;SDS011;18782;48.984;8.548;2023-05-16T14:28:44;3.95;;;0.90;;
32297;SDS011;18782;48.984;8.548;2023-05-16T14:31:11;5.25;;;1.10;;
32297;SDS011;18782;48.984;8.548;2023-05-16T14:33:41;3.55;;;0.93;;
32297;SDS011;18782;48.984;8.548;2023-05-16T14:36:10;9.10;;;2.58;;
32297;SDS011;18782;48.984;8.548;2023-05-16T14:38:38;3.30;;;1.00;;
32297;SDS011;18782;48.984;8.548;2023-05-16T14:41:05;5.68;;;1.38;;
32297;SDS011;18782;48.984;8.548;2023-05-16T14:43:33;5.70;;;0.98;;
32297;SDS011;18782;48.984;8.548;2023-05-16T14:46:01;6.10;;;1.00;;
32297;SDS011;18782;48.984;8.548;2023-05-16T14:48:28;6.03;;;1.17;;
32297;SDS011;18782;48.984;8.548;2023-05-16T14:50:56;4.60;;;1.13;;
32297;SDS011;18782;48.984;8.548;2023-05-16T14:53:25;6.45;;;1.13;;
32297;SDS011;18782;48.984;8.548;2023-05-16T14:55:53;3.10;;;0.75;;